Aérodrome :
LOGIN :

S'inscrire | Disclaimer

   EN    FR    IT 

 










Légende :    VFR   VFR Marginal   IFR   IFR Intensif   IFR Très Intensif
Visi : 
Plafond : 
>= 8 km
>= 3000ft
5 à 8 km
1000 à 3000 ft
1500m à 5 km
500 à 1000 ft
800 à 1500m
200 à 500 ft
< 800m
< 200 ft
Symboles :   Orages  Brouillard  Fortes neiges  Fortes précipitations  Vent > 20 kt
SIGMETs :   Divers  Orages  Givrage  Turbulence  Onde Orograph.  Cendres Volcan.






- Altitude de l'aérodrome : 83 ft
- Code IATA : LHR


EGLL - London Heathrow

DERNIER METAR :
  • 282120Z AUTO 32003KT 290V010 9999 NCD 08/06 Q1013

METARs EXPIRÉS :
  • 282050Z AUTO VRB02KT 9999 SCT012 BKN048 08/07 Q1013
  • 282020Z AUTO 31003KT 9999 SCT011 BKN041 08/07 Q1013 TEMPO BKN012
  • 281950Z AUTO VRB02KT 9999 BKN008 BKN032 08/07 Q1012 BECMG FEW010
  • 281920Z AUTO VRB02KT 9999 SCT012 BKN023 BKN032 08/07 Q1012 TEMPO 4000 BR
  • 281850Z AUTO VRB02KT 9999 FEW018 07/07 Q1011 TEMPO 2500 BR MIFG

TAF AMD TAF EGLL
Valide du 28 à 21h jusqu'au 30 à 00h UTC


282057Z 2821/2924 VRB03KT 9999 FEW020
TEMPO 2821/2910 3000 BR MIFG
PROB30
TEMPO 2821/2824 0600 FG BKN001
PROB40 2900/2909 0300 FG VV///
TEMPO 2903/2910 BKN004
BECMG 2910/2913 BKN009
BECMG 2913/2916 FEW018
PROB40 2921/2924 4000 BR MIFG



MET'MAP, la Météo Aéronautique d'un coup d'oeil ! - Copyright ORBIFLY Décembre 2007 - Disclaimer

ORBIFLY MET'MAP TEAM :

Programmation & Développement : Alexandra Zaïnal
Sur une idée originale de : Baudouin d'Aumeries
Soutien technique & logistique : Manuel Goepfert
Assistance : Marc-Olivier Méhu




SOURCES & CREDITS :

   NOAA